Harry B. Settoon — WDE5658 — position and weather

sailwx.info

Track history (hours):
 
Tides and Currents Weather Stations Pressure Air Temp Water Temp Dewpoint Dewpoint Depression Visibility Wind Speed Wind Dir Waves Ship Positions

Harry B. Settoon

Owner: Settoon Towing, LLC, Houma, LA. More information available from US FCC via Universal Licensing System and Coast Guard Vessel Documentation Center.

Last reported at 2017-Apr-25 07:03 UTC. Time now 2017-Apr-26 21:38 UTC.
Position N 29°36' W 090°58'.

; draft 1.8 m.

Type: Tug. MMSI: 367369920.

Date/timePositionNaut miles runAvg speedWind from/ knotsBaromVisibWave heightAir tempDewpointWater temp
2017-Apr-25 07:03N 29°36' W 090°58'2 5.5
2017-Apr-25 06:44N 29°34' W 090°57'1 5.6
2017-Apr-25 06:30N 29°34' W 090°56'3 5.7
2017-Apr-25 05:58N 29°32' W 090°52'3 5.6
2017-Apr-25 05:30N 29°32' W 090°50'3 5.5
2017-Apr-25 05:00N 29°32' W 090°46'2 4.9
2017-Apr-25 04:30N 29°34' W 090°44'2 4.6
2017-Apr-25 04:00N 29°36' W 090°43'2 3.5
2017-Apr-25 03:30N 29°36' W 090°41'3 5.5
2017-Apr-25 03:00N 29°35' W 090°38'2 4.9
2017-Apr-25 02:30N 29°35' W 090°35'3 5.4
2017-Apr-25 02:00N 29°34' W 090°32'3 5.6
2017-Apr-25 01:30N 29°34' W 090°29'2 0.0
2017-Apr-23 16:09N 29°34' W 090°31'1 7.0
2017-Apr-23 16:00N 29°34' W 090°32'3 6.6
2017-Apr-23 15:30N 29°35' W 090°36'3 5.9
2017-Apr-23 15:00N 29°36' W 090°39'4 4.1
2017-Apr-23 14:00N 29°34' W 090°43'3 6.6
2017-Apr-23 13:30N 29°32' W 090°46'4 7.5
2017-Apr-23 13:00N 29°32' W 090°51'6 0.4
2017-Apr-22 21:45N 29°34' W 090°57'2 5.3
2017-Apr-22 21:25N 29°33' W 090°55'4 5.4
2017-Apr-22 20:44N 29°32' W 090°51'1 4.5
2017-Apr-22 20:31N 29°32' W 090°50'3 5.5
2017-Apr-22 20:01N 29°32' W 090°47'2 4.9
2017-Apr-22 19:30N 29°34' W 090°44'2 4.2
2017-Apr-22 19:01N 29°35' W 090°43'2 3.6
2017-Apr-22 18:31N 29°37' W 090°41'3 5.5
2017-Apr-22 18:00N 29°35' W 090°38'3 5.7
2017-Apr-22 17:29N 29°35' W 090°35'3 5.8
2017-Apr-22 17:00N 29°34' W 090°32'  
2017-Apr-20 04:59N 29°34' W 090°29'3 6.4
2017-Apr-20 04:30N 29°34' W 090°33'3 6.3
2017-Apr-20 04:00N 29°35' W 090°36'3 6.3
2017-Apr-20 03:31N 29°36' W 090°40'3 5.2
2017-Apr-20 03:01N 29°36' W 090°43'3 5.3
2017-Apr-20 02:31N 29°34' W 090°44'3 5.5
2017-Apr-20 02:01N 29°32' W 090°46'3 6.7
2017-Apr-20 01:31N 29°32' W 090°50'8 1.2
2017-Apr-19 19:05N 29°36' W 090°58'2 5.3
2017-Apr-19 18:45N 29°34' W 090°57'1 5.6
2017-Apr-19 18:30N 29°34' W 090°55'3 5.7
2017-Apr-19 17:57N 29°32' W 090°52'2 5.6
2017-Apr-19 17:31N 29°32' W 090°49'3 5.1
2017-Apr-19 17:01N 29°32' W 090°46'3 5.2
2017-Apr-19 16:31N 29°34' W 090°44'2 4.3
2017-Apr-19 16:00N 29°36' W 090°43'2 3.4
2017-Apr-19 15:30N 29°36' W 090°41'1 2.0
2017-Apr-19 15:00N 29°36' W 090°40'0 0.0
2017-Apr-19 14:31N 29°36' W 090°40'0 0.1
2017-Apr-19 13:30N 29°36' W 090°40'3 5.9
2017-Apr-19 13:01N 29°35' W 090°37'3 6.0
2017-Apr-19 12:31N 29°34' W 090°33'3 6.3
2017-Apr-19 11:59N 29°34' W 090°29'  
2017-Apr-16 18:33N 29°34' W 090°31'0 6.2
2017-Apr-16 18:30N 29°34' W 090°31'3 6.2
2017-Apr-16 18:00N 29°34' W 090°35'3 5.8
2017-Apr-16 17:30N 29°35' W 090°38'3 6.4
2017-Apr-16 17:00N 29°37' W 090°41'2 4.4
2017-Apr-16 16:30N 29°35' W 090°43'3 6.1
2017-Apr-16 16:00N 29°33' W 090°45'3 6.4
2017-Apr-16 15:30N 29°32' W 090°49'55 3.4
2017-Apr-15 23:09N 29°49' W 091°49'3 5.6
2017-Apr-15 22:39N 29°51' W 091°52'1 6.3
2017-Apr-15 22:30N 29°51' W 091°53'3 6.3
2017-Apr-15 21:59N 29°51' W 091°56'3 5.6
2017-Apr-15 21:30N 29°50' W 091°59'0 0.0
2017-Apr-15 21:00N 29°50' W 091°59'0 0.0
2017-Apr-15 20:30N 29°50' W 091°59'0 0.0
2017-Apr-15 20:00N 29°50' W 091°59'0 0.0
2017-Apr-15 19:30N 29°50' W 091°59'0 0.0
2017-Apr-15 19:00N 29°50' W 091°59'0 0.0
2017-Apr-15 18:30N 29°50' W 091°59'0 0.0
2017-Apr-15 18:00N 29°50' W 091°59'0 0.0
2017-Apr-15 17:30N 29°50' W 091°59'0 0.0
2017-Apr-15 17:01N 29°50' W 091°59'0 0.0
2017-Apr-15 16:31N 29°50' W 091°59'0 0.0
2017-Apr-15 16:00N 29°50' W 091°59'0 0.0
2017-Apr-15 15:31N 29°50' W 091°59'0 0.0
2017-Apr-15 15:01N 29°50' W 091°59'0 0.0
2017-Apr-15 14:31N 29°50' W 091°59'0 0.0
2017-Apr-15 13:31N 29°50' W 091°59'0 0.8
2017-Apr-15 13:01N 29°50' W 091°59'  
Track history (hours):
 
Tides and Currents Weather Stations Pressure Air Temp Water Temp Dewpoint Dewpoint Depression Visibility Wind Speed Wind Dir Waves Ship Positions

Harry B. Settoon

Owner: Settoon Towing, LLC, Houma, LA. More information available from US FCC via Universal Licensing System and Coast Guard Vessel Documentation Center.

Last reported at 2017-Apr-25 07:03 UTC. Time now 2017-Apr-26 21:38 UTC.
Position N 29°36' W 090°58'.

; draft 1.8 m.

Type: Tug. MMSI: 367369920.

Date/timePositionNaut miles runAvg speedWind from/ knotsBaromVisibWave heightAir tempDewpointWater temp
2017-Apr-25 07:03N 29°36' W 090°58'2 5.5
2017-Apr-25 06:44N 29°34' W 090°57'1 5.6
2017-Apr-25 06:30N 29°34' W 090°56'3 5.7
2017-Apr-25 05:58N 29°32' W 090°52'3 5.6
2017-Apr-25 05:30N 29°32' W 090°50'3 5.5
2017-Apr-25 05:00N 29°32' W 090°46'2 4.9
2017-Apr-25 04:30N 29°34' W 090°44'2 4.6
2017-Apr-25 04:00N 29°36' W 090°43'2 3.5
2017-Apr-25 03:30N 29°36' W 090°41'3 5.5
2017-Apr-25 03:00N 29°35' W 090°38'2 4.9
2017-Apr-25 02:30N 29°35' W 090°35'3 5.4
2017-Apr-25 02:00N 29°34' W 090°32'3 5.6
2017-Apr-25 01:30N 29°34' W 090°29'2 0.0
2017-Apr-23 16:09N 29°34' W 090°31'1 7.0
2017-Apr-23 16:00N 29°34' W 090°32'3 6.6
2017-Apr-23 15:30N 29°35' W 090°36'3 5.9
2017-Apr-23 15:00N 29°36' W 090°39'4 4.1
2017-Apr-23 14:00N 29°34' W 090°43'3 6.6
2017-Apr-23 13:30N 29°32' W 090°46'4 7.5
2017-Apr-23 13:00N 29°32' W 090°51'6 0.4
2017-Apr-22 21:45N 29°34' W 090°57'2 5.3
2017-Apr-22 21:25N 29°33' W 090°55'4 5.4
2017-Apr-22 20:44N 29°32' W 090°51'1 4.5
2017-Apr-22 20:31N 29°32' W 090°50'3 5.5
2017-Apr-22 20:01N 29°32' W 090°47'2 4.9
2017-Apr-22 19:30N 29°34' W 090°44'2 4.2
2017-Apr-22 19:01N 29°35' W 090°43'2 3.6
2017-Apr-22 18:31N 29°37' W 090°41'3 5.5
2017-Apr-22 18:00N 29°35' W 090°38'3 5.7
2017-Apr-22 17:29N 29°35' W 090°35'3 5.8
2017-Apr-22 17:00N 29°34' W 090°32'  
2017-Apr-20 04:59N 29°34' W 090°29'3 6.4
2017-Apr-20 04:30N 29°34' W 090°33'3 6.3
2017-Apr-20 04:00N 29°35' W 090°36'3 6.3
2017-Apr-20 03:31N 29°36' W 090°40'3 5.2
2017-Apr-20 03:01N 29°36' W 090°43'3 5.3
2017-Apr-20 02:31N 29°34' W 090°44'3 5.5
2017-Apr-20 02:01N 29°32' W 090°46'3 6.7
2017-Apr-20 01:31N 29°32' W 090°50'8 1.2
2017-Apr-19 19:05N 29°36' W 090°58'2 5.3
2017-Apr-19 18:45N 29°34' W 090°57'1 5.6
2017-Apr-19 18:30N 29°34' W 090°55'3 5.7
2017-Apr-19 17:57N 29°32' W 090°52'2 5.6
2017-Apr-19 17:31N 29°32' W 090°49'3 5.1
2017-Apr-19 17:01N 29°32' W 090°46'3 5.2
2017-Apr-19 16:31N 29°34' W 090°44'2 4.3
2017-Apr-19 16:00N 29°36' W 090°43'2 3.4
2017-Apr-19 15:30N 29°36' W 090°41'1 2.0
2017-Apr-19 15:00N 29°36' W 090°40'0 0.0
2017-Apr-19 14:31N 29°36' W 090°40'0 0.1
2017-Apr-19 13:30N 29°36' W 090°40'3 5.9
2017-Apr-19 13:01N 29°35' W 090°37'3 6.0
2017-Apr-19 12:31N 29°34' W 090°33'3 6.3
2017-Apr-19 11:59N 29°34' W 090°29'  
2017-Apr-16 18:33N 29°34' W 090°31'0 6.2
2017-Apr-16 18:30N 29°34' W 090°31'3 6.2
2017-Apr-16 18:00N 29°34' W 090°35'3 5.8
2017-Apr-16 17:30N 29°35' W 090°38'3 6.4
2017-Apr-16 17:00N 29°37' W 090°41'2 4.4
2017-Apr-16 16:30N 29°35' W 090°43'3 6.1
2017-Apr-16 16:00N 29°33' W 090°45'3 6.4
2017-Apr-16 15:30N 29°32' W 090°49'55 3.4
2017-Apr-15 23:09N 29°49' W 091°49'3 5.6
2017-Apr-15 22:39N 29°51' W 091°52'1 6.3
2017-Apr-15 22:30N 29°51' W 091°53'3 6.3
2017-Apr-15 21:59N 29°51' W 091°56'3 5.6
2017-Apr-15 21:30N 29°50' W 091°59'0 0.0
2017-Apr-15 21:00N 29°50' W 091°59'0 0.0
2017-Apr-15 20:30N 29°50' W 091°59'0 0.0
2017-Apr-15 20:00N 29°50' W 091°59'0 0.0
2017-Apr-15 19:30N 29°50' W 091°59'0 0.0
2017-Apr-15 19:00N 29°50' W 091°59'0 0.0
2017-Apr-15 18:30N 29°50' W 091°59'0 0.0
2017-Apr-15 18:00N 29°50' W 091°59'0 0.0
2017-Apr-15 17:30N 29°50' W 091°59'0 0.0
2017-Apr-15 17:01N 29°50' W 091°59'0 0.0
2017-Apr-15 16:31N 29°50' W 091°59'0 0.0
2017-Apr-15 16:00N 29°50' W 091°59'0 0.0
2017-Apr-15 15:31N 29°50' W 091°59'0 0.0
2017-Apr-15 15:01N 29°50' W 091°59'0 0.0
2017-Apr-15 14:31N 29°50' W 091°59'0 0.0
2017-Apr-15 13:31N 29°50' W 091°59'0 0.8
2017-Apr-15 13:01N 29°50' W 091°59'  

Dump ship's entire track history